sensor_id;sensor_type;location;lat;lon;timestamp;P1;durP1;ratioP1;P2;durP2;ratioP2
30173;SDS011;16985;50.814;8.530;2023-07-31T00:00:41;6.80;;;2.75;;
30173;SDS011;16985;50.814;8.530;2023-07-31T00:03:07;5.85;;;2.65;;
30173;SDS011;16985;50.814;8.530;2023-07-31T00:05:33;5.45;;;2.55;;
30173;SDS011;16985;50.814;8.530;2023-07-31T00:07:58;6.13;;;2.45;;
30173;SDS011;16985;50.814;8.530;2023-07-31T00:10:24;7.57;;;2.65;;
30173;SDS011;16985;50.814;8.530;2023-07-31T00:12:50;8.63;;;2.13;;
30173;SDS011;16985;50.814;8.530;2023-07-31T00:15:16;5.00;;;2.63;;
30173;SDS011;16985;50.814;8.530;2023-07-31T00:17:41;7.35;;;2.78;;
30173;SDS011;16985;50.814;8.530;2023-07-31T00:20:07;8.85;;;2.75;;
30173;SDS011;16985;50.814;8.530;2023-07-31T00:22:34;9.18;;;3.08;;
30173;SDS011;16985;50.814;8.530;2023-07-31T00:25:01;10.85;;;3.50;;
30173;SDS011;16985;50.814;8.530;2023-07-31T00:27:27;7.75;;;2.22;;
30173;SDS011;16985;50.814;8.530;2023-07-31T00:29:53;4.90;;;1.98;;
30173;SDS011;16985;50.814;8.530;2023-07-31T00:32:18;8.73;;;2.33;;
30173;SDS011;16985;50.814;8.530;2023-07-31T00:34:44;7.70;;;2.45;;
30173;SDS011;16985;50.814;8.530;2023-07-31T00:37:10;8.65;;;2.85;;
30173;SDS011;16985;50.814;8.530;2023-07-31T00:39:36;4.20;;;2.15;;
30173;SDS011;16985;50.814;8.530;2023-07-31T00:42:02;5.57;;;3.10;;
30173;SDS011;16985;50.814;8.530;2023-07-31T00:44:28;7.10;;;2.50;;
30173;SDS011;16985;50.814;8.530;2023-07-31T00:46:53;5.30;;;2.50;;
30173;SDS011;16985;50.814;8.530;2023-07-31T00:49:21;7.47;;;2.70;;
30173;SDS011;16985;50.814;8.530;2023-07-31T00:51:48;6.65;;;2.55;;
30173;SDS011;16985;50.814;8.530;2023-07-31T00:54:14;3.78;;;2.60;;
30173;SDS011;16985;50.814;8.530;2023-07-31T00:56:40;5.63;;;2.55;;
30173;SDS011;16985;50.814;8.530;2023-07-31T00:59:07;8.10;;;3.00;;
30173;SDS011;16985;50.814;8.530;2023-07-31T01:01:33;6.03;;;2.78;;
30173;SDS011;16985;50.814;8.530;2023-07-31T01:03:59;10.45;;;3.50;;
30173;SDS011;16985;50.814;8.530;2023-07-31T01:09:12;6.07;;;3.20;;
30173;SDS011;16985;50.814;8.530;2023-07-31T01:11:52;6.68;;;3.13;;
30173;SDS011;16985;50.814;8.530;2023-07-31T01:14:22;4.88;;;2.72;;
30173;SDS011;16985;50.814;8.530;2023-07-31T01:16:48;6.20;;;2.85;;
30173;SDS011;16985;50.814;8.530;2023-07-31T01:19:17;9.32;;;3.05;;
30173;SDS011;16985;50.814;8.530;2023-07-31T01:28:17;6.43;;;3.38;;
30173;SDS011;16985;50.814;8.530;2023-07-31T01:30:48;5.88;;;3.15;;
30173;SDS011;16985;50.814;8.530;2023-07-31T01:33:17;6.80;;;3.25;;
30173;SDS011;16985;50.814;8.530;2023-07-31T01:35:45;5.78;;;2.55;;
30173;SDS011;16985;50.814;8.530;2023-07-31T01:38:11;6.68;;;2.70;;
30173;SDS011;16985;50.814;8.530;2023-07-31T01:40:37;6.43;;;2.63;;
30173;SDS011;16985;50.814;8.530;2023-07-31T01:43:08;8.05;;;3.63;;
30173;SDS011;16985;50.814;8.530;2023-07-31T01:45:34;5.45;;;2.65;;
30173;SDS011;16985;50.814;8.530;2023-07-31T01:48:00;4.78;;;2.60;;
30173;SDS011;16985;50.814;8.530;2023-07-31T01:50:26;7.03;;;2.92;;
30173;SDS011;16985;50.814;8.530;2023-07-31T01:52:51;6.32;;;3.38;;
30173;SDS011;16985;50.814;8.530;2023-07-31T01:55:17;5.55;;;2.75;;
30173;SDS011;16985;50.814;8.530;2023-07-31T01:57:43;9.07;;;3.13;;
30173;SDS011;16985;50.814;8.530;2023-07-31T02:00:09;5.57;;;3.15;;
30173;SDS011;16985;50.814;8.530;2023-07-31T02:02:38;8.95;;;3.28;;
30173;SDS011;16985;50.814;8.530;2023-07-31T02:05:04;3.92;;;2.42;;
30173;SDS011;16985;50.814;8.530;2023-07-31T02:07:30;8.18;;;2.85;;
30173;SDS011;16985;50.814;8.530;2023-07-31T02:09:56;5.10;;;3.20;;
30173;SDS011;16985;50.814;8.530;2023-07-31T02:12:22;8.63;;;3.22;;
30173;SDS011;16985;50.814;8.530;2023-07-31T02:14:48;6.43;;;3.10;;
30173;SDS011;16985;50.814;8.530;2023-07-31T02:17:13;8.50;;;3.00;;
30173;SDS011;16985;50.814;8.530;2023-07-31T02:19:40;7.60;;;3.13;;
30173;SDS011;16985;50.814;8.530;2023-07-31T02:22:05;7.22;;;3.72;;
30173;SDS011;16985;50.814;8.530;2023-07-31T02:24:31;7.18;;;3.10;;
30173;SDS011;16985;50.814;8.530;2023-07-31T02:26:57;5.47;;;2.72;;
30173;SDS011;16985;50.814;8.530;2023-07-31T02:29:23;4.75;;;2.63;;
30173;SDS011;16985;50.814;8.530;2023-07-31T02:31:49;5.93;;;3.13;;
30173;SDS011;16985;50.814;8.530;2023-07-31T02:34:15;6.97;;;2.88;;
30173;SDS011;16985;50.814;8.530;2023-07-31T02:36:40;4.82;;;2.60;;
30173;SDS011;16985;50.814;8.530;2023-07-31T02:39:06;7.47;;;2.92;;
30173;SDS011;16985;50.814;8.530;2023-07-31T02:41:32;6.38;;;3.05;;
30173;SDS011;16985;50.814;8.530;2023-07-31T02:43:58;4.72;;;2.50;;
30173;SDS011;16985;50.814;8.530;2023-07-31T02:46:24;5.93;;;3.08;;
30173;SDS011;16985;50.814;8.530;2023-07-31T02:48:50;9.05;;;3.22;;
30173;SDS011;16985;50.814;8.530;2023-07-31T02:51:16;6.00;;;3.28;;
30173;SDS011;16985;50.814;8.530;2023-07-31T02:53:42;7.63;;;3.13;;
30173;SDS011;16985;50.814;8.530;2023-07-31T02:56:08;5.20;;;2.40;;
30173;SDS011;16985;50.814;8.530;2023-07-31T02:58:33;5.95;;;2.67;;
30173;SDS011;16985;50.814;8.530;2023-07-31T03:00:59;7.28;;;3.38;;
30173;SDS011;16985;50.814;8.530;2023-07-31T03:03:25;6.22;;;3.00;;
30173;SDS011;16985;50.814;8.530;2023-07-31T03:05:51;7.50;;;2.50;;
30173;SDS011;16985;50.814;8.530;2023-07-31T03:08:18;5.03;;;2.60;;
30173;SDS011;16985;50.814;8.530;2023-07-31T03:10:43;5.47;;;3.10;;
30173;SDS011;16985;50.814;8.530;2023-07-31T03:13:09;4.47;;;2.55;;
30173;SDS011;16985;50.814;8.530;2023-07-31T03:15:35;9.88;;;2.72;;
30173;SDS011;16985;50.814;8.530;2023-07-31T03:18:01;5.13;;;2.53;;
30173;SDS011;16985;50.814;8.530;2023-07-31T03:20:26;5.78;;;2.55;;
30173;SDS011;16985;50.814;8.530;2023-07-31T03:22:52;5.05;;;2.40;;
30173;SDS011;16985;50.814;8.530;2023-07-31T03:25:18;3.67;;;2.60;;
30173;SDS011;16985;50.814;8.530;2023-07-31T03:27:44;5.05;;;2.00;;
30173;SDS011;16985;50.814;8.530;2023-07-31T03:30:10;4.00;;;2.17;;
30173;SDS011;16985;50.814;8.530;2023-07-31T03:32:36;6.32;;;3.13;;
30173;SDS011;16985;50.814;8.530;2023-07-31T03:35:02;4.38;;;2.13;;
30173;SDS011;16985;50.814;8.530;2023-07-31T03:37:28;2.15;;;1.67;;
30173;SDS011;16985;50.814;8.530;2023-07-31T03:39:54;4.03;;;2.20;;
30173;SDS011;16985;50.814;8.530;2023-07-31T03:42:20;2.05;;;1.42;;
30173;SDS011;16985;50.814;8.530;2023-07-31T03:44:46;4.90;;;2.15;;
30173;SDS011;16985;50.814;8.530;2023-07-31T03:47:12;4.05;;;1.90;;
30173;SDS011;16985;50.814;8.530;2023-07-31T03:49:38;5.15;;;2.15;;
30173;SDS011;16985;50.814;8.530;2023-07-31T03:52:03;4.43;;;2.30;;
30173;SDS011;16985;50.814;8.530;2023-07-31T03:54:29;7.97;;;2.42;;
30173;SDS011;16985;50.814;8.530;2023-07-31T03:56:55;6.30;;;2.17;;
30173;SDS011;16985;50.814;8.530;2023-07-31T03:59:21;4.93;;;2.10;;
30173;SDS011;16985;50.814;8.530;2023-07-31T04:01:47;6.20;;;2.72;;
30173;SDS011;16985;50.814;8.530;2023-07-31T04:04:13;5.05;;;2.55;;
30173;SDS011;16985;50.814;8.530;2023-07-31T04:06:38;5.65;;;2.92;;
30173;SDS011;16985;50.814;8.530;2023-07-31T04:09:04;5.07;;;2.50;;
30173;SDS011;16985;50.814;8.530;2023-07-31T04:11:30;9.50;;;3.05;;
30173;SDS011;16985;50.814;8.530;2023-07-31T04:13:56;8.60;;;3.00;;
30173;SDS011;16985;50.814;8.530;2023-07-31T04:16:22;9.27;;;3.40;;
30173;SDS011;16985;50.814;8.530;2023-07-31T04:18:47;6.47;;;3.00;;
30173;SDS011;16985;50.814;8.530;2023-07-31T04:21:13;6.53;;;2.65;;
30173;SDS011;16985;50.814;8.530;2023-07-31T04:23:39;7.55;;;3.15;;
30173;SDS011;16985;50.814;8.530;2023-07-31T04:26:05;5.07;;;2.75;;
30173;SDS011;16985;50.814;8.530;2023-07-31T04:28:30;14.00;;;4.15;;
30173;SDS011;16985;50.814;8.530;2023-07-31T04:30:56;4.25;;;2.53;;
30173;SDS011;16985;50.814;8.530;2023-07-31T04:33:22;5.68;;;3.28;;
30173;SDS011;16985;50.814;8.530;2023-07-31T04:35:50;11.02;;;3.13;;
30173;SDS011;16985;50.814;8.530;2023-07-31T04:38:18;4.80;;;3.00;;
30173;SDS011;16985;50.814;8.530;2023-07-31T04:40:47;7.82;;;3.42;;
30173;SDS011;16985;50.814;8.530;2023-07-31T04:43:13;6.00;;;3.30;;
30173;SDS011;16985;50.814;8.530;2023-07-31T04:45:42;6.00;;;3.17;;
30173;SDS011;16985;50.814;8.530;2023-07-31T04:48:11;5.88;;;3.13;;
30173;SDS011;16985;50.814;8.530;2023-07-31T04:50:37;5.10;;;3.10;;
30173;SDS011;16985;50.814;8.530;2023-07-31T04:53:03;5.80;;;3.15;;
30173;SDS011;16985;50.814;8.530;2023-07-31T04:55:29;7.07;;;3.88;;
30173;SDS011;16985;50.814;8.530;2023-07-31T04:57:55;7.05;;;3.45;;
30173;SDS011;16985;50.814;8.530;2023-07-31T05:00:21;6.38;;;3.17;;
30173;SDS011;16985;50.814;8.530;2023-07-31T05:02:46;6.10;;;2.83;;
30173;SDS011;16985;50.814;8.530;2023-07-31T05:05:12;10.50;;;2.78;;
30173;SDS011;16985;50.814;8.530;2023-07-31T05:07:38;6.35;;;2.65;;
30173;SDS011;16985;50.814;8.530;2023-07-31T05:10:04;5.85;;;3.60;;
30173;SDS011;16985;50.814;8.530;2023-07-31T05:12:30;5.07;;;2.83;;
30173;SDS011;16985;50.814;8.530;2023-07-31T05:14:56;7.05;;;2.85;;
30173;SDS011;16985;50.814;8.530;2023-07-31T05:17:21;8.25;;;3.22;;
30173;SDS011;16985;50.814;8.530;2023-07-31T05:19:48;7.32;;;3.42;;
30173;SDS011;16985;50.814;8.530;2023-07-31T05:22:13;7.85;;;3.10;;
30173;SDS011;16985;50.814;8.530;2023-07-31T05:24:39;9.13;;;3.40;;
30173;SDS011;16985;50.814;8.530;2023-07-31T05:27:05;6.40;;;3.45;;
30173;SDS011;16985;50.814;8.530;2023-07-31T05:29:31;6.40;;;3.03;;
30173;SDS011;16985;50.814;8.530;2023-07-31T05:31:57;10.10;;;3.35;;
30173;SDS011;16985;50.814;8.530;2023-07-31T05:34:23;7.53;;;3.30;;
30173;SDS011;16985;50.814;8.530;2023-07-31T05:36:48;8.20;;;3.38;;
30173;SDS011;16985;50.814;8.530;2023-07-31T05:39:14;6.93;;;3.28;;
30173;SDS011;16985;50.814;8.530;2023-07-31T05:41:40;4.97;;;3.00;;
30173;SDS011;16985;50.814;8.530;2023-07-31T05:44:06;11.85;;;3.25;;
30173;SDS011;16985;50.814;8.530;2023-07-31T05:46:32;6.45;;;3.00;;
30173;SDS011;16985;50.814;8.530;2023-07-31T05:48:58;5.95;;;3.30;;
30173;SDS011;16985;50.814;8.530;2023-07-31T05:51:26;6.40;;;3.17;;
30173;SDS011;16985;50.814;8.530;2023-07-31T05:53:52;6.55;;;2.60;;
30173;SDS011;16985;50.814;8.530;2023-07-31T05:56:18;13.30;;;3.08;;
30173;SDS011;16985;50.814;8.530;2023-07-31T05:58:44;5.82;;;3.63;;
30173;SDS011;16985;50.814;8.530;2023-07-31T06:01:10;6.93;;;3.28;;
30173;SDS011;16985;50.814;8.530;2023-07-31T06:03:36;3.35;;;2.40;;
30173;SDS011;16985;50.814;8.530;2023-07-31T06:06:02;4.25;;;2.88;;
30173;SDS011;16985;50.814;8.530;2023-07-31T06:08:27;9.02;;;3.38;;
30173;SDS011;16985;50.814;8.530;2023-07-31T06:10:53;4.40;;;2.75;;
30173;SDS011;16985;50.814;8.530;2023-07-31T06:13:19;4.22;;;2.88;;
30173;SDS011;16985;50.814;8.530;2023-07-31T06:15:45;7.43;;;3.38;;
30173;SDS011;16985;50.814;8.530;2023-07-31T06:18:10;7.60;;;3.67;;
30173;SDS011;16985;50.814;8.530;2023-07-31T06:20:36;5.43;;;2.92;;
30173;SDS011;16985;50.814;8.530;2023-07-31T06:23:05;7.15;;;2.65;;
30173;SDS011;16985;50.814;8.530;2023-07-31T06:25:31;8.80;;;3.45;;
30173;SDS011;16985;50.814;8.530;2023-07-31T06:27:57;9.73;;;3.53;;
30173;SDS011;16985;50.814;8.530;2023-07-31T06:30:22;4.75;;;2.78;;
30173;SDS011;16985;50.814;8.530;2023-07-31T06:32:48;5.18;;;3.33;;
30173;SDS011;16985;50.814;8.530;2023-07-31T06:35:14;6.05;;;2.78;;
30173;SDS011;16985;50.814;8.530;2023-07-31T06:37:40;4.85;;;3.17;;
30173;SDS011;16985;50.814;8.530;2023-07-31T06:40:08;3.92;;;2.50;;
30173;SDS011;16985;50.814;8.530;2023-07-31T06:42:35;5.95;;;2.70;;
30173;SDS011;16985;50.814;8.530;2023-07-31T06:45:01;4.50;;;2.97;;
30173;SDS011;16985;50.814;8.530;2023-07-31T06:47:27;6.88;;;4.07;;
30173;SDS011;16985;50.814;8.530;2023-07-31T06:49:53;7.50;;;2.92;;
30173;SDS011;16985;50.814;8.530;2023-07-31T06:52:20;4.45;;;2.55;;
30173;SDS011;16985;50.814;8.530;2023-07-31T06:54:57;9.40;;;4.03;;
30173;SDS011;16985;50.814;8.530;2023-07-31T06:57:42;5.78;;;2.72;;
30173;SDS011;16985;50.814;8.530;2023-07-31T07:00:08;4.20;;;2.80;;
30173;SDS011;16985;50.814;8.530;2023-07-31T07:02:35;6.63;;;3.05;;
30173;SDS011;16985;50.814;8.530;2023-07-31T07:05:01;5.28;;;2.75;;
30173;SDS011;16985;50.814;8.530;2023-07-31T07:07:27;7.68;;;3.58;;
30173;SDS011;16985;50.814;8.530;2023-07-31T07:09:53;5.47;;;3.17;;
30173;SDS011;16985;50.814;8.530;2023-07-31T07:12:19;4.82;;;2.40;;
30173;SDS011;16985;50.814;8.530;2023-07-31T07:14:45;5.07;;;3.20;;
30173;SDS011;16985;50.814;8.530;2023-07-31T07:17:13;6.25;;;3.20;;
30173;SDS011;16985;50.814;8.530;2023-07-31T07:19:42;7.65;;;3.08;;
30173;SDS011;16985;50.814;8.530;2023-07-31T07:22:09;5.18;;;3.17;;
30173;SDS011;16985;50.814;8.530;2023-07-31T07:24:35;5.77;;;3.07;;
30173;SDS011;16985;50.814;8.530;2023-07-31T07:27:01;6.35;;;2.75;;
30173;SDS011;16985;50.814;8.530;2023-07-31T07:29:27;3.78;;;3.08;;
30173;SDS011;16985;50.814;8.530;2023-07-31T07:31:52;5.82;;;3.47;;
30173;SDS011;16985;50.814;8.530;2023-07-31T07:34:18;8.88;;;3.13;;
30173;SDS011;16985;50.814;8.530;2023-07-31T07:36:44;7.38;;;3.72;;
30173;SDS011;16985;50.814;8.530;2023-07-31T07:39:10;9.43;;;4.07;;
30173;SDS011;16985;50.814;8.530;2023-07-31T07:41:36;6.22;;;3.50;;
30173;SDS011;16985;50.814;8.530;2023-07-31T07:44:02;4.75;;;3.00;;
30173;SDS011;16985;50.814;8.530;2023-07-31T07:46:28;5.53;;;2.95;;
30173;SDS011;16985;50.814;8.530;2023-07-31T07:48:54;6.90;;;2.72;;
30173;SDS011;16985;50.814;8.530;2023-07-31T07:51:19;8.07;;;2.97;;
30173;SDS011;16985;50.814;8.530;2023-07-31T07:53:45;6.15;;;3.25;;
30173;SDS011;16985;50.814;8.530;2023-07-31T07:56:11;7.45;;;3.10;;
30173;SDS011;16985;50.814;8.530;2023-07-31T07:58:37;7.05;;;2.70;;
30173;SDS011;16985;50.814;8.530;2023-07-31T08:01:02;5.72;;;2.63;;
30173;SDS011;16985;50.814;8.530;2023-07-31T08:03:28;5.85;;;2.63;;
30173;SDS011;16985;50.814;8.530;2023-07-31T08:05:57;5.20;;;3.03;;
30173;SDS011;16985;50.814;8.530;2023-07-31T08:08:24;4.80;;;2.95;;
30173;SDS011;16985;50.814;8.530;2023-07-31T08:10:50;7.78;;;3.28;;
30173;SDS011;16985;50.814;8.530;2023-07-31T08:13:16;5.43;;;2.95;;
30173;SDS011;16985;50.814;8.530;2023-07-31T08:15:41;5.78;;;3.45;;
30173;SDS011;16985;50.814;8.530;2023-07-31T08:18:08;8.82;;;3.22;;
30173;SDS011;16985;50.814;8.530;2023-07-31T08:20:34;6.10;;;3.42;;
30173;SDS011;16985;50.814;8.530;2023-07-31T08:23:00;6.45;;;2.92;;
30173;SDS011;16985;50.814;8.530;2023-07-31T08:25:26;5.68;;;3.45;;
30173;SDS011;16985;50.814;8.530;2023-07-31T08:27:52;8.60;;;3.47;;
30173;SDS011;16985;50.814;8.530;2023-07-31T08:30:18;12.13;;;3.92;;
30173;SDS011;16985;50.814;8.530;2023-07-31T08:32:44;5.10;;;3.35;;
30173;SDS011;16985;50.814;8.530;2023-07-31T08:35:10;5.53;;;3.13;;
30173;SDS011;16985;50.814;8.530;2023-07-31T08:37:37;6.50;;;3.67;;
30173;SDS011;16985;50.814;8.530;2023-07-31T08:40:04;8.18;;;3.17;;
30173;SDS011;16985;50.814;8.530;2023-07-31T08:42:30;7.30;;;3.50;;
30173;SDS011;16985;50.814;8.530;2023-07-31T08:44:57;6.70;;;3.33;;
30173;SDS011;16985;50.814;8.530;2023-07-31T08:47:25;6.47;;;3.85;;
30173;SDS011;16985;50.814;8.530;2023-07-31T08:49:52;6.83;;;3.50;;
30173;SDS011;16985;50.814;8.530;2023-07-31T08:52:19;9.02;;;4.05;;
30173;SDS011;16985;50.814;8.530;2023-07-31T08:54:45;10.20;;;3.92;;
30173;SDS011;16985;50.814;8.530;2023-07-31T08:57:11;11.13;;;3.92;;
30173;SDS011;16985;50.814;8.530;2023-07-31T08:59:37;9.40;;;3.78;;
30173;SDS011;16985;50.814;8.530;2023-07-31T09:02:07;8.25;;;3.97;;
30173;SDS011;16985;50.814;8.530;2023-07-31T09:04:34;8.52;;;3.47;;
30173;SDS011;16985;50.814;8.530;2023-07-31T09:07:01;5.15;;;3.65;;
30173;SDS011;16985;50.814;8.530;2023-07-31T09:09:29;8.93;;;3.95;;
30173;SDS011;16985;50.814;8.530;2023-07-31T09:11:59;8.70;;;4.88;;
30173;SDS011;16985;50.814;8.530;2023-07-31T09:14:26;9.63;;;3.60;;
30173;SDS011;16985;50.814;8.530;2023-07-31T09:16:53;7.05;;;3.25;;
30173;SDS011;16985;50.814;8.530;2023-07-31T09:19:25;7.80;;;3.97;;
30173;SDS011;16985;50.814;8.530;2023-07-31T09:21:54;8.65;;;4.50;;
30173;SDS011;16985;50.814;8.530;2023-07-31T09:24:26;11.23;;;3.88;;
30173;SDS011;16985;50.814;8.530;2023-07-31T09:26:55;7.25;;;3.90;;
30173;SDS011;16985;50.814;8.530;2023-07-31T09:29:22;8.40;;;3.70;;
30173;SDS011;16985;50.814;8.530;2023-07-31T09:31:48;5.90;;;3.22;;
30173;SDS011;16985;50.814;8.530;2023-07-31T09:34:15;9.25;;;3.30;;
30173;SDS011;16985;50.814;8.530;2023-07-31T09:36:44;9.15;;;3.70;;
30173;SDS011;16985;50.814;8.530;2023-07-31T09:39:12;9.73;;;3.70;;
30173;SDS011;16985;50.814;8.530;2023-07-31T09:41:42;7.50;;;3.08;;
30173;SDS011;16985;50.814;8.530;2023-07-31T09:44:09;10.73;;;4.63;;
30173;SDS011;16985;50.814;8.530;2023-07-31T09:46:36;6.47;;;3.10;;
30173;SDS011;16985;50.814;8.530;2023-07-31T09:49:06;7.97;;;3.65;;
30173;SDS011;16985;50.814;8.530;2023-07-31T09:51:34;7.72;;;3.80;;
30173;SDS011;16985;50.814;8.530;2023-07-31T09:54:08;7.47;;;3.53;;
30173;SDS011;16985;50.814;8.530;2023-07-31T09:56:43;9.15;;;3.80;;
30173;SDS011;16985;50.814;8.530;2023-07-31T09:59:15;10.25;;;3.95;;
30173;SDS011;16985;50.814;8.530;2023-07-31T10:01:45;5.72;;;3.50;;
30173;SDS011;16985;50.814;8.530;2023-07-31T10:04:12;4.72;;;3.03;;
30173;SDS011;16985;50.814;8.530;2023-07-31T10:06:39;8.77;;;3.50;;
30173;SDS011;16985;50.814;8.530;2023-07-31T10:09:08;7.00;;;3.58;;
30173;SDS011;16985;50.814;8.530;2023-07-31T10:11:43;7.60;;;4.13;;
30173;SDS011;16985;50.814;8.530;2023-07-31T10:14:26;6.93;;;4.55;;
30173;SDS011;16985;50.814;8.530;2023-07-31T10:16:53;8.07;;;4.50;;
30173;SDS011;16985;50.814;8.530;2023-07-31T10:19:20;5.93;;;3.80;;
30173;SDS011;16985;50.814;8.530;2023-07-31T10:21:47;5.93;;;3.92;;
30173;SDS011;16985;50.814;8.530;2023-07-31T10:24:14;4.78;;;3.40;;
30173;SDS011;16985;50.814;8.530;2023-07-31T10:26:41;9.77;;;3.55;;
30173;SDS011;16985;50.814;8.530;2023-07-31T10:29:11;6.97;;;3.30;;
30173;SDS011;16985;50.814;8.530;2023-07-31T10:31:37;5.80;;;3.65;;
30173;SDS011;16985;50.814;8.530;2023-07-31T10:34:03;8.93;;;4.47;;
30173;SDS011;16985;50.814;8.530;2023-07-31T10:36:30;9.10;;;3.38;;
30173;SDS011;16985;50.814;8.530;2023-07-31T10:38:56;8.43;;;3.33;;
30173;SDS011;16985;50.814;8.530;2023-07-31T10:41:31;7.95;;;4.22;;
30173;SDS011;16985;50.814;8.530;2023-07-31T10:44:00;11.18;;;3.55;;
30173;SDS011;16985;50.814;8.530;2023-07-31T10:46:27;6.93;;;3.65;;
30173;SDS011;16985;50.814;8.530;2023-07-31T10:49:01;5.97;;;3.35;;
30173;SDS011;16985;50.814;8.530;2023-07-31T10:51:34;7.25;;;3.47;;
30173;SDS011;16985;50.814;8.530;2023-07-31T10:54:11;6.38;;;3.42;;
30173;SDS011;16985;50.814;8.530;2023-07-31T10:56:44;5.50;;;3.55;;
30173;SDS011;16985;50.814;8.530;2023-07-31T10:59:11;6.65;;;3.78;;
30173;SDS011;16985;50.814;8.530;2023-07-31T11:01:54;9.83;;;3.57;;
30173;SDS011;16985;50.814;8.530;2023-07-31T11:04:27;6.53;;;3.70;;
30173;SDS011;16985;50.814;8.530;2023-07-31T11:06:56;8.55;;;4.05;;
30173;SDS011;16985;50.814;8.530;2023-07-31T11:09:27;11.20;;;3.85;;
30173;SDS011;16985;50.814;8.530;2023-07-31T11:11:57;9.23;;;3.63;;
30173;SDS011;16985;50.814;8.530;2023-07-31T11:14:24;9.18;;;3.70;;
30173;SDS011;16985;50.814;8.530;2023-07-31T11:16:53;9.38;;;4.07;;
30173;SDS011;16985;50.814;8.530;2023-07-31T11:19:23;6.65;;;3.67;;
30173;SDS011;16985;50.814;8.530;2023-07-31T11:21:50;8.18;;;3.60;;
30173;SDS011;16985;50.814;8.530;2023-07-31T11:24:18;7.72;;;3.60;;
30173;SDS011;16985;50.814;8.530;2023-07-31T11:26:52;8.00;;;3.92;;
30173;SDS011;16985;50.814;8.530;2023-07-31T11:29:18;8.68;;;3.95;;
30173;SDS011;16985;50.814;8.530;2023-07-31T11:31:47;7.93;;;3.58;;
30173;SDS011;16985;50.814;8.530;2023-07-31T11:34:14;11.50;;;4.47;;
30173;SDS011;16985;50.814;8.530;2023-07-31T11:36:40;9.43;;;4.10;;
30173;SDS011;16985;50.814;8.530;2023-07-31T11:39:07;9.27;;;3.72;;
30173;SDS011;16985;50.814;8.530;2023-07-31T11:41:34;9.45;;;3.95;;
30173;SDS011;16985;50.814;8.530;2023-07-31T11:44:00;9.75;;;4.28;;
30173;SDS011;16985;50.814;8.530;2023-07-31T11:46:26;7.85;;;4.13;;
30173;SDS011;16985;50.814;8.530;2023-07-31T11:48:58;6.10;;;3.28;;
30173;SDS011;16985;50.814;8.530;2023-07-31T11:51:25;6.70;;;3.25;;
30173;SDS011;16985;50.814;8.530;2023-07-31T11:53:59;10.45;;;4.90;;
30173;SDS011;16985;50.814;8.530;2023-07-31T11:56:26;9.63;;;4.00;;
30173;SDS011;16985;50.814;8.530;2023-07-31T11:58:53;10.45;;;4.03;;
30173;SDS011;16985;50.814;8.530;2023-07-31T12:01:23;7.63;;;3.42;;
30173;SDS011;16985;50.814;8.530;2023-07-31T12:03:50;9.15;;;3.92;;
30173;SDS011;16985;50.814;8.530;2023-07-31T12:06:17;6.47;;;3.17;;
30173;SDS011;16985;50.814;8.530;2023-07-31T12:08:42;7.72;;;3.67;;
30173;SDS011;16985;50.814;8.530;2023-07-31T12:11:09;7.88;;;3.53;;
30173;SDS011;16985;50.814;8.530;2023-07-31T12:13:35;7.25;;;3.50;;
30173;SDS011;16985;50.814;8.530;2023-07-31T12:16:01;7.00;;;3.47;;
30173;SDS011;16985;50.814;8.530;2023-07-31T12:18:29;11.82;;;4.05;;
30173;SDS011;16985;50.814;8.530;2023-07-31T12:21:00;9.48;;;3.72;;
30173;SDS011;16985;50.814;8.530;2023-07-31T12:28:45;8.07;;;3.53;;
30173;SDS011;16985;50.814;8.530;2023-07-31T12:33:44;6.70;;;3.78;;
30173;SDS011;16985;50.814;8.530;2023-07-31T12:36:12;5.60;;;3.45;;
30173;SDS011;16985;50.814;8.530;2023-07-31T12:38:41;5.35;;;2.88;;
30173;SDS011;16985;50.814;8.530;2023-07-31T12:41:08;7.63;;;3.55;;
30173;SDS011;16985;50.814;8.530;2023-07-31T12:43:35;6.53;;;3.90;;
30173;SDS011;16985;50.814;8.530;2023-07-31T12:46:06;7.00;;;2.90;;
30173;SDS011;16985;50.814;8.530;2023-07-31T12:48:33;5.90;;;3.65;;
30173;SDS011;16985;50.814;8.530;2023-07-31T12:51:00;9.93;;;3.28;;
30173;SDS011;16985;50.814;8.530;2023-07-31T12:53:26;7.60;;;3.00;;
30173;SDS011;16985;50.814;8.530;2023-07-31T12:55:52;5.55;;;3.33;;
30173;SDS011;16985;50.814;8.530;2023-07-31T12:58:18;7.90;;;3.42;;
30173;SDS011;16985;50.814;8.530;2023-07-31T13:00:44;6.35;;;3.95;;
30173;SDS011;16985;50.814;8.530;2023-07-31T13:03:10;5.15;;;2.92;;
30173;SDS011;16985;50.814;8.530;2023-07-31T13:05:36;6.75;;;2.72;;
30173;SDS011;16985;50.814;8.530;2023-07-31T13:08:01;5.85;;;3.05;;
30173;SDS011;16985;50.814;8.530;2023-07-31T13:10:27;5.80;;;2.90;;
30173;SDS011;16985;50.814;8.530;2023-07-31T13:12:54;7.82;;;2.58;;
30173;SDS011;16985;50.814;8.530;2023-07-31T13:15:20;4.10;;;2.20;;
30173;SDS011;16985;50.814;8.530;2023-07-31T13:17:46;4.07;;;2.88;;
30173;SDS011;16985;50.814;8.530;2023-07-31T13:20:12;5.65;;;2.42;;
30173;SDS011;16985;50.814;8.530;2023-07-31T13:22:38;4.05;;;2.55;;
30173;SDS011;16985;50.814;8.530;2023-07-31T13:25:04;9.48;;;2.15;;
30173;SDS011;16985;50.814;8.530;2023-07-31T13:27:31;4.03;;;2.35;;
30173;SDS011;16985;50.814;8.530;2023-07-31T13:29:57;2.95;;;2.28;;
30173;SDS011;16985;50.814;8.530;2023-07-31T13:32:22;5.05;;;2.35;;
30173;SDS011;16985;50.814;8.530;2023-07-31T13:34:49;8.32;;;3.05;;
30173;SDS011;16985;50.814;8.530;2023-07-31T13:37:14;3.92;;;2.30;;
30173;SDS011;16985;50.814;8.530;2023-07-31T13:39:40;6.28;;;2.05;;
30173;SDS011;16985;50.814;8.530;2023-07-31T13:42:07;7.43;;;2.50;;
30173;SDS011;16985;50.814;8.530;2023-07-31T13:44:34;4.43;;;2.47;;
30173;SDS011;16985;50.814;8.530;2023-07-31T13:47:00;3.05;;;2.25;;
30173;SDS011;16985;50.814;8.530;2023-07-31T13:49:27;4.03;;;2.42;;
30173;SDS011;16985;50.814;8.530;2023-07-31T13:51:54;4.78;;;2.05;;
30173;SDS011;16985;50.814;8.530;2023-07-31T13:54:20;3.80;;;1.98;;
30173;SDS011;16985;50.814;8.530;2023-07-31T13:56:45;3.60;;;2.05;;
30173;SDS011;16985;50.814;8.530;2023-07-31T13:59:11;3.70;;;1.83;;
30173;SDS011;16985;50.814;8.530;2023-07-31T14:01:38;7.45;;;2.17;;
30173;SDS011;16985;50.814;8.530;2023-07-31T14:04:04;4.68;;;1.95;;
30173;SDS011;16985;50.814;8.530;2023-07-31T14:06:30;3.58;;;1.80;;
30173;SDS011;16985;50.814;8.530;2023-07-31T14:08:56;4.25;;;2.38;;
30173;SDS011;16985;50.814;8.530;2023-07-31T14:11:22;4.15;;;2.08;;
30173;SDS011;16985;50.814;8.530;2023-07-31T14:13:48;5.72;;;2.08;;
30173;SDS011;16985;50.814;8.530;2023-07-31T14:16:15;3.88;;;1.98;;
30173;SDS011;16985;50.814;8.530;2023-07-31T14:18:41;2.78;;;1.80;;
30173;SDS011;16985;50.814;8.530;2023-07-31T14:21:07;3.15;;;2.15;;
30173;SDS011;16985;50.814;8.530;2023-07-31T14:23:33;3.42;;;2.05;;
30173;SDS011;16985;50.814;8.530;2023-07-31T14:25:59;3.85;;;2.00;;
30173;SDS011;16985;50.814;8.530;2023-07-31T14:28:25;2.35;;;1.77;;
30173;SDS011;16985;50.814;8.530;2023-07-31T14:30:51;5.38;;;2.67;;
30173;SDS011;16985;50.814;8.530;2023-07-31T14:33:17;3.63;;;2.45;;
30173;SDS011;16985;50.814;8.530;2023-07-31T14:35:42;4.38;;;2.60;;
30173;SDS011;16985;50.814;8.530;2023-07-31T14:38:08;6.07;;;2.92;;
30173;SDS011;16985;50.814;8.530;2023-07-31T14:40:34;4.47;;;2.80;;
30173;SDS011;16985;50.814;8.530;2023-07-31T14:43:00;4.20;;;2.70;;
30173;SDS011;16985;50.814;8.530;2023-07-31T14:45:26;5.63;;;2.70;;
30173;SDS011;16985;50.814;8.530;2023-07-31T14:47:51;4.72;;;2.85;;
30173;SDS011;16985;50.814;8.530;2023-07-31T14:50:17;5.22;;;2.90;;
30173;SDS011;16985;50.814;8.530;2023-07-31T14:52:45;6.95;;;2.88;;
30173;SDS011;16985;50.814;8.530;2023-07-31T14:55:11;4.57;;;3.03;;
30173;SDS011;16985;50.814;8.530;2023-07-31T14:57:37;13.35;;;3.13;;
30173;SDS011;16985;50.814;8.530;2023-07-31T15:00:02;4.30;;;2.90;;
30173;SDS011;16985;50.814;8.530;2023-07-31T15:02:33;4.53;;;3.00;;